Flight Track Log - Related Links

Times and Time Zones

All times are in EDT time to prevent confusion due to time zone crossing. See the N2710W flight status page for this flight to view local times or setup timezone preferences in your user account.

Time Position Orientation Groundspeed Altitude Reporting Facility
EDT Latitude Longitude Course Direction KTS MPH feet Rate Location/Type
Sun 05:39:46 PM 38.3753 -98.7397 75° East 87 100 5,300  Level Kansas City Center
Sun 05:41:00 PM 38.3681 -98.6747 78° East  Level FlightAware Approximate
Sun 05:41:50 PM 38.3869 -98.6761 78° East 90 104 6,500  Level Kansas City Center
Sun 05:42:52 PM 38.3956 -98.6453 70° East 92 106 7,100 581 Climbing Kansas City Center
Sun 05:43:54 PM 38.4017 -98.6083 78° East 89 102 7,700 484 Climbing Kansas City Center
Sun 05:44:56 PM 38.4097 -98.5761 72° East 94 108 8,100 387 Climbing Kansas City Center
Sun 05:45:00 PM 38.4081 -98.5530 75° East  Level Estimated
Sun 05:45:58 PM 38.4161 -98.5431 76° East 96 110 8,500  Level Kansas City Center
Sun 05:47:00 PM 38.4233 -98.5106 74° East 95 109 9,000 435 Climbing Kansas City Center
Sun 05:48:02 PM 38.4308 -98.4725 76° East 108 124 9,400 387 Climbing Kansas City Center
Sun 05:49:04 PM 38.4386 -98.4347 75° East 110 127 9,800 435 Climbing Kansas City Center
Sun 05:50:06 PM 38.4464 -98.3964 75° East 111 128 10,300 484 Climbing Kansas City Center
Sun 05:51:08 PM 38.4556 -98.3519 75° East 110 127 10,800 387 Climbing Kansas City Center
Sun 05:52:10 PM 38.4628 -98.3153 76° East 108 124 11,100 97 Climbing Kansas City Center
Sun 05:53:12 PM 38.4717 -98.2714 75° East 125 144 11,000 -48 Descending Kansas City Center
Sun 05:54:14 PM 38.4817 -98.2222 75° East 140 161 11,000  Level Kansas City Center
Sun 05:55:16 PM 38.4911 -98.1744 76° East 138 159 11,000  Level Kansas City Center
Sun 05:56:17 PM 38.5008 -98.1275 75° East 137 158 11,000  Level Kansas City Center
Sun 05:58:00 PM 38.5176 -98.0407 76° East  Level FlightAware Approximate
Sun 05:58:21 PM 38.5214 -98.0239 76° East 137 158 11,000  Level Kansas City Center
Sun 05:59:23 PM 38.5311 -97.9775 75° East 135 155 11,000  Level Kansas City Center
Sun 06:00:25 PM 38.5403 -97.9311 76° East 135 155 11,000  Level Kansas City Center
Sun 06:01:27 PM 38.5497 -97.8833 76° East 138 159 11,000  Level Kansas City Center
Sun 06:03:31 PM 38.5689 -97.7878 76° East 140 161 11,000  Level Kansas City Center
Sun 06:04:32 PM 38.5783 -97.7406 76° East 137 158 11,000  Level Kansas City Center
Sun 06:05:34 PM 38.5897 -97.6850 75° East 134 154 11,000  Level Kansas City Center
Sun 06:06:36 PM 38.5983 -97.6386 77° East 134 154 11,000  Level Kansas City Center
Sun 06:07:38 PM 38.6081 -97.5939 74° East 131 151 11,000 -48 Level Kansas City Center
Sun 06:08:40 PM 38.6167 -97.5475 77° East 133 153 10,900 -48 Descending Kansas City Center
Sun 06:09:42 PM 38.6275 -97.4928 76° East 140 161 10,900 49 Level Kansas City Center
Sun 06:10:43 PM 38.6372 -97.4472 75° East 139 160 11,000 49 Climbing Kansas City Center
Sun 06:11:45 PM 38.6461 -97.3975 77° East 138 159 11,000  Level Kansas City Center
Sun 06:12:47 PM 38.6564 -97.3489 75° East 136 157 11,000  Level Kansas City Center
Sun 06:13:49 PM 38.6656 -97.2992 77° East 138 159 11,000  Level Kansas City Center
Sun 06:14:51 PM 38.6756 -97.2486 76° East 141 162 11,000  Level Kansas City Center
Sun 06:15:53 PM 38.6850 -97.1989 76° East 139 160 11,000  Level Kansas City Center
Sun 06:16:55 PM 38.6944 -97.1522 75° East 140 161 11,000  Level Kansas City Center
Sun 06:17:56 PM 38.7036 -97.1025 77° East 138 159 11,000  Level Kansas City Center
Sun 06:18:58 PM 38.7131 -97.0528 76° East 136 157 11,000  Level Kansas City Center
Sun 06:20:00 PM 38.7225 -97.0033 76° East 137 158 11,000  Level Kansas City Center
Sun 06:21:02 PM 38.7339 -96.9528 74° East 142 163 11,000  Level Kansas City Center
Sun 06:22:04 PM 38.7419 -96.9022 78° East 140 161 11,000  Level Kansas City Center
Sun 06:23:06 PM 38.7508 -96.8553 76° East 140 161 11,000  Level Kansas City Center
Sun 06:24:07 PM 38.7608 -96.8058 75° East 139 160 11,000  Level Kansas City Center
Sun 06:25:09 PM 38.7694 -96.7561 77° East 137 158 11,000  Level Kansas City Center
Sun 06:26:11 PM 38.7794 -96.7064 76° East 138 159 11,000  Level Kansas City Center
Sun 06:27:13 PM 38.7881 -96.6578 77° East 136 157 11,000  Level Kansas City Center
Sun 06:28:15 PM 38.7983 -96.6083 75° East 137 158 11,000 -48 Level Kansas City Center
Sun 06:29:17 PM 38.8067 -96.5619 77° East 140 161 10,900 -49 Descending Kansas City Center
Sun 06:30:18 PM 38.8156 -96.5100 78° East 143 165 10,900  Level Kansas City Center
Sun 06:31:20 PM 38.8253 -96.4600 76° East 138 159 10,900  Level Kansas City Center
Sun 06:32:22 PM 38.8339 -96.4103 77° East 138 159 10,900 48 Level Kansas City Center
Sun 06:33:24 PM 38.8436 -96.3628 75° East 134 154 11,000 48 Climbing Kansas City Center
Sun 06:34:26 PM 38.8528 -96.3150 76° East 132 152 11,000  Level Kansas City Center
Sun 06:35:28 PM 38.8611 -96.2697 77° East 134 154 11,000  Level Kansas City Center
Sun 06:36:30 PM 38.8697 -96.2203 77° East 135 155 11,000  Level Kansas City Center
Sun 06:37:31 PM 38.8783 -96.1714 77° East 134 154 11,000  Level Kansas City Center
Sun 06:38:33 PM 38.8872 -96.1264 76° East 134 154 11,000  Level Kansas City Center
Sun 06:39:35 PM 38.8961 -96.0728 78° East 136 157 11,000  Level Kansas City Center
Sun 06:41:00 PM 38.9060 -96.0022 80° East  Level FlightAware Approximate
Sun 06:41:39 PM 38.9131 -95.9833 80° East 136 157 11,000  Level Kansas City Center
Sun 06:42:41 PM 38.9228 -95.9300 77° East 135 155 11,000  Level Kansas City Center
Sun 06:43:42 PM 38.9300 -95.8861 78° East 134 154 11,000  Level Kansas City Center
Sun 06:44:44 PM 38.9400 -95.8350 76° East 133 153 11,000  Level Kansas City Center
Sun 06:45:46 PM 38.9483 -95.7894 77° East 138 159 11,000  Level Kansas City Center
Sun 06:46:48 PM 38.9572 -95.7358 78° East 135 155 11,000  Level Kansas City Center
Sun 06:47:50 PM 38.9664 -95.6894 76° East 138 159 11,000  Level Kansas City Center
Sun 06:48:52 PM 38.9756 -95.6361 78° East 138 159 11,000  Level Kansas City Center
Sun 06:49:53 PM 38.9836 -95.5900 77° East 137 158 11,000  Level Kansas City Center
Sun 06:51:39 PM 39.0000 -95.5000 77° East 139 160 11,000  Level Kansas City TRACON
Sun 06:52:39 PM 39.0000 -95.4500 90° East 138 159 11,000  Level Kansas City TRACON
Sun 06:53:39 PM 39.0167 -95.4000 67° East 139 160 11,000  Level Kansas City TRACON
Sun 06:54:39 PM 39.0167 -95.3500 90° East 137 158 11,000  Level Kansas City TRACON
Sun 06:55:45 PM 39.0333 -95.3000 67° East 134 154 11,000  Level Kansas City TRACON
Sun 06:56:45 PM 39.0500 -95.2667 57° Northeast 136 157 11,000 50 Level Kansas City TRACON
Sun 06:57:45 PM 39.0500 -95.2167 90° East 139 160 11,100 50 Climbing Kansas City TRACON
Sun 06:58:45 PM 39.0667 -95.1667 67° East 139 160 11,100  Level Kansas City TRACON
Sun 06:59:46 PM 39.0667 -95.1167 90° East 138 159 11,100  Level Kansas City TRACON
Sun 07:00:51 PM 39.0833 -95.0667 67° East 141 162 11,100  Level Kansas City TRACON
Sun 07:01:51 PM 39.0833 -95.0167 90° East 139 160 11,100  Level Kansas City TRACON
Sun 07:03:19 PM 39.0964 -94.9475 76° East 138 159 11,100 -40 Level Kansas City Center
Sun 07:04:21 PM 39.1050 -94.8939 78° East 137 158 11,000 -48 Descending Kansas City Center
Sun 07:05:23 PM 39.1128 -94.8481 78° East 137 158 11,000  Level Kansas City Center
Sun 07:06:25 PM 39.1228 -94.7953 76° East 135 155 11,000  Level Kansas City Center
Sun 07:07:27 PM 39.1303 -94.7511 78° East 132 152 11,000  Level Kansas City Center
Sun 07:08:29 PM 39.1389 -94.6989 78° East 133 153 11,000  Level Kansas City Center
Sun 07:09:31 PM 39.1464 -94.6539 78° East 134 154 11,000  Level Kansas City Center
Sun 07:10:33 PM 39.1550 -94.6022 78° East 133 153 11,000  Level Kansas City Center
Sun 07:11:35 PM 39.1625 -94.5581 78° East 132 152 11,000  Level Kansas City Center
Sun 07:12:37 PM 39.1708 -94.5061 78° East 132 152 11,000 48 Level Kansas City Center
Sun 07:13:39 PM 39.1794 -94.4633 75° East 130 150 11,100  Climbing Kansas City Center
Sun 07:14:41 PM 39.1858 -94.4169 80° East 134 154 11,000  Descending Kansas City Center
Sun 07:15:42 PM 39.1950 -94.3650 77° East 134 154 11,100 49 Climbing Kansas City Center
Sun 07:16:44 PM 39.2025 -94.3214 77° East 132 152 11,100  Level Kansas City Center
Sun 07:17:46 PM 39.2111 -94.2692 78° East 133 153 11,100  Level Kansas City Center
Sun 07:18:48 PM 39.2189 -94.2250 77° East 132 152 11,100  Level Kansas City Center
Sun 07:19:50 PM 39.2272 -94.1739 78° East 130 150 11,100  Level Kansas City Center
Sun 07:20:52 PM 39.2339 -94.1308 79° East 127 146 11,100  Level Kansas City Center
Sun 07:21:54 PM 39.2417 -94.0806 79° East 128 147 11,100 242 Level Kansas City Center
Sun 07:22:56 PM 39.2483 -94.0417 78° East 117 135 11,600 390 Climbing Kansas City Center
Sun 07:23:57 PM 39.2539 -94.0056 79° East 109 125 11,900 244 Climbing Kansas City Center
Sun 07:24:59 PM 39.2622 -93.9633 76° East 109 125 12,100 48 Climbing Kansas City Center
Sun 07:26:01 PM 39.2678 -93.9217 80° East 124 143 12,000 -48 Descending Kansas City Center
Sun 07:27:03 PM 39.2767 -93.8700 77° East 131 151 12,000  Level Kansas City Center
Sun 07:28:05 PM 39.2847 -93.8264 77° East 131 151 12,000  Level Kansas City Center
Sun 07:29:07 PM 39.2919 -93.7736 80° East 132 152 12,000  Level Kansas City Center
Sun 07:30:08 PM 39.3014 -93.7269 75° East 130 150 12,000  Level Kansas City Center
Sun 07:31:10 PM 39.3072 -93.6819 80° East 129 148 12,000  Level Kansas City Center
Sun 07:32:12 PM 39.3144 -93.6375 78° East 129 148 12,000  Level Kansas City Center
Sun 07:33:14 PM 39.3214 -93.5931 79° East 128 147 12,000  Level Kansas City Center
Sun 07:34:16 PM 39.3292 -93.5489 77° East 127 146 12,000  Level Kansas City Center
Sun 07:35:17 PM 39.3367 -93.5053 77° East 126 145 12,000  Level Kansas City Center
Sun 07:36:19 PM 39.3439 -93.4522 80° East 127 146 12,000  Level Kansas City Center
Sun 07:37:21 PM 39.3503 -93.4072 80° East 127 146 12,000  Level Kansas City Center
Sun 07:38:23 PM 39.3578 -93.3681 76° East 121 139 12,000 49 Level Kansas City Center
Sun 07:39:24 PM 39.3658 -93.3250 76° East 123 142 12,100 49 Climbing Kansas City Center
Sun 07:40:26 PM 39.3719 -93.2808 80° East 125 144 12,100  Level Kansas City Center
Sun 07:41:28 PM 39.3803 -93.2278 78° East 127 146 12,100  Level Kansas City Center
Sun 07:42:29 PM 39.3861 -93.1844 80° East 125 144 12,100  Level Kansas City Center
Sun 07:43:31 PM 39.3944 -93.1394 77° East 128 147 12,100  Level Kansas City Center
Sun 07:44:33 PM 39.4003 -93.0958 80° East 126 145 12,100 -48 Level Kansas City Center
Sun 07:45:35 PM 39.4064 -93.0494 80° East 130 150 12,000 -49 Descending Kansas City Center
Sun 07:46:36 PM 39.4131 -93.0033 79° East 132 152 12,000  Level Kansas City Center
Sun 07:47:38 PM 39.4211 -92.9497 79° East 129 148 12,000  Level Kansas City Center
Sun 07:48:40 PM 39.4283 -92.9064 78° East 127 146 12,000  Level Kansas City Center
Sun 07:49:42 PM 39.4356 -92.8600 79° East 130 150 12,000  Level Kansas City Center
Sun 07:50:44 PM 39.4422 -92.8156 79° East 128 147 12,000 -195 Level Kansas City Center
Sun 07:51:45 PM 39.4494 -92.7669 79° East 133 153 11,600 -439 Descending Kansas City Center
Sun 07:52:47 PM 39.4561 -92.7058 82° East 142 163 11,100 -339 Descending Kansas City Center
Sun 07:53:49 PM 39.4639 -92.6531 79° East 148 170 10,900 -97 Descending Kansas City Center
Sun 07:54:51 PM 39.4728 -92.6072 76° East 141 162 10,900  Level Kansas City Center
Sun 07:55:52 PM 39.4814 -92.5622 76° East 135 155 10,900  Level Kansas City Center
Sun 07:56:54 PM 39.4883 -92.5181 78° East 131 151 10,900  Level Kansas City Center
Sun 07:57:56 PM 39.4939 -92.4711 81° East 131 151 10,900  Level Kansas City Center
Sun 07:58:57 PM 39.5028 -92.4164 78° East 131 151 10,900  Level Kansas City Center
Sun 07:59:59 PM 39.5092 -92.3694 80° East 133 153 10,900 49 Level Kansas City Center
Sun 08:01:00 PM 39.5167 -92.3236 78° East 132 152 11,000 49 Climbing Kansas City Center
Sun 08:02:01 PM 39.5225 -92.2761 81° East 133 153 11,000  Level Kansas City Center
Sun 08:03:03 PM 39.5294 -92.2306 79° East 132 152 11,000  Level Kansas City Center
Sun 08:04:05 PM 39.5386 -92.1753 78° East 132 152 11,000  Level Kansas City Center
Sun 08:05:06 PM 39.5453 -92.1278 80° East 134 154 11,000  Level Kansas City Center
Sun 08:06:08 PM 39.5514 -92.0819 80° East 133 153 11,000  Level Kansas City Center
Sun 08:07:10 PM 39.5586 -92.0358 79° East 132 152 11,000  Level Kansas City Center
Sun 08:08:11 PM 39.5656 -91.9878 79° East 134 154 11,000  Level Kansas City Center
Sun 08:09:13 PM 39.5722 -91.9400 80° East 135 155 11,000  Level Kansas City Center
Sun 08:10:15 PM 39.5800 -91.8847 80° East 134 154 11,000  Level Kansas City Center
Sun 08:11:16 PM 39.5872 -91.8367 79° East 135 155 11,000  Level Kansas City Center
Sun 08:12:18 PM 39.5922 -91.7900 82° East 134 154 11,000  Level Kansas City Center
Sun 08:13:20 PM 39.5983 -91.7408 81° East 136 157 11,000  Level Kansas City Center
Sun 08:14:22 PM 39.6014 -91.6956 85° East 132 152 11,000  Level Kansas City Center
Sun 08:15:23 PM 39.6072 -91.6386 82° East 132 152 11,000  Level Kansas City Center
Sun 08:16:25 PM 39.6108 -91.5922 84° East 133 153 11,000  Level Kansas City Center
Sun 08:17:27 PM 39.6167 -91.5439 81° East 135 155 11,000  Level Kansas City Center
Sun 08:18:28 PM 39.6208 -91.4972 83° East 133 153 11,000  Level Kansas City Center
Sun 08:19:32 PM 39.6267 -91.4494 81° East 134 154 11,000  Level Kansas City Center
Sun 08:20:32 PM 39.6314 -91.4019 83° East 134 154 11,000  Level Kansas City Center
Sun 08:21:34 PM 39.6372 -91.3431 83° East 136 157 11,000  Level Kansas City Center
Sun 08:22:35 PM 39.6400 -91.2989 85° East 136 157 11,000  Level Kansas City Center
Sun 08:23:37 PM 39.6439 -91.2503 84° East 136 157 11,000  Level Kansas City Center
Sun 08:24:39 PM 39.6453 -91.2017 88° East 136 157 11,000  Level Kansas City Center
Sun 08:25:40 PM 39.6461 -91.1447 89° East 133 153 11,000  Level Kansas City Center
Sun 08:26:42 PM 39.6492 -91.0953 85° East 136 157 11,000  Level Kansas City Center
Sun 08:27:43 PM 39.6517 -91.0461 86° East 137 158 11,000  Level Kansas City Center
Sun 08:28:45 PM 39.6533 -90.9967 87° East 137 158 11,000  Level Kansas City Center
Sun 08:29:47 PM 39.6489 -90.9469 97° East 139 160 11,000  Level Kansas City Center
Sun 08:30:49 PM 39.6414 -90.8942 100° East 145 167 11,000  Level Kansas City Center
Sun 08:31:50 PM 39.6278 -90.8458 110° East 146 168 11,000 -98 Level Kansas City Center
Sun 08:32:52 PM 39.6078 -90.7881 114° Southeast 152 175 10,800 -48 Descending Kansas City Center
Sun 08:33:54 PM 39.6169 -90.7358 77° East 157 181 10,900 98 Climbing Kansas City Center
Sun 08:34:55 PM 39.6258 -90.6925 75° East 138 159 11,000 49 Climbing Kansas City Center
Sun 08:35:57 PM 39.6344 -90.6469 76° East 131 151 11,000  Level Kansas City Center
Sun 08:36:59 PM 39.6436 -90.6022 75° East 129 148 11,000  Level Kansas City Center
Sun 08:38:00 PM 39.6514 -90.5564 78° East 130 150 11,000  Level Kansas City Center
Sun 08:39:01 PM 39.6592 -90.5111 77° East 130 150 11,000  Level Kansas City Center
Sun 08:40:03 PM 39.6678 -90.4658 76° East 129 148 11,000  Level Kansas City Center
Sun 08:41:05 PM 39.6775 -90.4100 77° East 130 150 11,000  Level Kansas City Center
Sun 08:42:06 PM 39.6861 -90.3631 77° East 132 152 11,000  Level Kansas City Center
Sun 08:43:08 PM 39.6953 -90.3147 76° East 134 154 11,000  Level Kansas City Center
Sun 08:44:09 PM 39.7031 -90.2653 78° East 137 158 11,000  Level Kansas City Center
Sun 08:45:11 PM 39.7117 -90.2181 77° East 137 158 11,000  Level Kansas City Center
Sun 08:46:13 PM 39.7200 -90.1728 77° East 134 154 11,000  Level Kansas City Center
Sun 08:47:14 PM 39.7286 -90.1269 76° East 132 152 11,000 -49 Level Kansas City Center
Sun 08:48:16 PM 39.7358 -90.0783 79° East 133 153 10,900 -293 Descending Kansas City Center
Sun 08:49:17 PM 39.7464 -90.0186 77° East 136 157 10,400 -439 Descending Kansas City Center
Sun 08:50:19 PM 39.7556 -89.9628 78° East 144 166 10,000 -341 Descending Kansas City Center
Sun 08:51:20 PM 39.7653 -89.9106 76° East 148 170 9,700 -390 Descending Kansas City Center
Sun 08:52:22 PM 39.7747 -89.8578 77° East 149 171 9,200 -439 Descending Kansas City Center
Sun 08:53:23 PM 39.7836 -89.8064 77° East 149 171 8,800 -390 Descending Kansas City Center
Sun 08:54:25 PM 39.7922 -89.7536 78° East 149 171 8,400 -390 Descending Kansas City Center
Sun 08:55:26 PM 39.8017 -89.7025 76° East 147 169 8,000 -344 Descending Kansas City Center
Sun 08:56:27 PM 39.8103 -89.6536 77° East 145 167 7,700 -244 Descending Kansas City Center
Sun 08:57:29 PM 39.8175 -89.6050 79° East 142 163 7,500 -244 Descending Kansas City Center
Sun 08:58:30 PM 39.8264 -89.5478 79° East 138 159 7,200 -242 Descending Kansas City Center
Sun 08:59:33 PM 39.8358 -89.5017 75° East 136 157 7,000 -97 Descending Kansas City Center
Sun 09:00:34 PM 39.8442 -89.4572 76° East 132 152 7,000 -49 Level Kansas City Center
Sun 09:01:35 PM 39.8514 -89.4136 78° East 128 147 6,900 -195 Descending Kansas City Center
Sun 09:02:37 PM 39.8592 -89.3669 78° East 128 147 6,600 -293 Descending Kansas City Center
Sun 09:03:38 PM 39.8664 -89.3200 79° East 130 150 6,300 -246 Descending Kansas City Center
Sun 09:04:39 PM 39.8750 -89.2708 77° East 133 153 6,100 -195 Descending Kansas City Center
Sun 09:05:41 PM 39.8833 -89.2214 78° East 137 158 5,900 -195 Descending Kansas City Center
Sun 09:06:42 PM 39.8917 -89.1756 77° East 135 155 5,700 -244 Descending Kansas City Center
Sun 09:07:44 PM 39.9014 -89.1181 78° East 135 155 5,400 -244 Descending Kansas City Center
Sun 09:08:45 PM 39.9086 -89.0714 79° East 134 154 5,200 -190 Descending Kansas City Center
Sun 09:09:50 PM 39.9178 -89.0233 76° East 135 155 5,000 -190 Descending Chicago Center
Sun 09:10:51 PM 39.9253 -88.9761 78° East 135 155 4,800 -195 Descending Chicago Center
Sun 09:11:53 PM 39.9328 -88.9283 78° East 135 155 4,600 -194 Descending Chicago Center
Sun 09:12:55 PM 39.9428 -88.8714 77° East 135 155 4,400 -242 Descending Chicago Center
Sun 09:13:57 PM 39.9503 -88.8250 78° East 134 154 4,100 -235 Descending Chicago Center
Sun 09:15:54 PM 39.9650 -88.7375 78° East 135 155 3,700 -270 Descending Kansas City Center
Sun 09:16:55 PM 39.9736 -88.6797 79° East 136 157 3,300 -277 Descending Kansas City Center
Sun 09:18:04 PM 39.9825 -88.6344 76° East 134 154 3,100 -137 Descending Chicago Center
Sun 09:19:06 PM 39.9894 -88.5894 79° East 130 150 3,000 -97 Descending Chicago Center

Login

Don't have an account? Register now (free) for customized features, flight alerts, and more!